Time;durP1;ratioP1;P1;durP2;ratioP2;P2;SDS_P1;SDS_P2;PMS_P1;PMS_P2;Temp;Humidity;BMP_temperature;BMP_pressure;BME280_temperature;BME280_humidity;BME280_pressure;Samples;Min_cycle;Max_cycle;Signal;HPM_P1;HPM_P2
2021/01/26 00:00:12;;;;;;;51.45;12.63;;;1.50;93.90;;;;;;4957446;28;20530;-81
2021/01/26 00:02:38;;;;;;;40.55;11.23;;;1.50;94.00;;;;;;4963790;28;20510;-81
2021/01/26 00:05:04;;;;;;;16.38;3.53;;;1.50;93.90;;;;;;4963919;28;20039;-81
2021/01/26 00:07:33;;;;;;;20.73;6.25;;;1.40;93.90;;;;;;4963794;28;20023;-81
2021/01/26 00:09:58;;;;;;;28.90;9.45;;;1.40;93.80;;;;;;4960183;28;20031;-81
2021/01/26 00:12:27;;;;;;;16.08;5.40;;;1.40;93.90;;;;;;4963674;28;20027;-82
2021/01/26 00:14:52;;;;;;;5.45;2.70;;;1.30;93.70;;;;;;4963476;28;20519;-82
2021/01/26 00:17:18;;;;;;;27.58;10.10;;;1.20;93.60;;;;;;4994461;28;20022;-81
2021/01/26 00:19:44;;;;;;;21.40;8.60;;;1.20;93.60;;;;;;4963872;28;20027;-82
2021/01/26 00:22:09;;;;;;;20.27;7.03;;;1.10;93.60;;;;;;4963604;28;20113;-82
2021/01/26 00:24:35;;;;;;;18.15;7.88;;;1.10;93.80;;;;;;4963344;28;20105;-82
2021/01/26 00:27:00;;;;;;;29.27;8.43;;;1.20;93.90;;;;;;4993276;28;20027;-82
2021/01/26 00:29:26;;;;;;;19.80;6.45;;;1.20;94.00;;;;;;4959588;28;20050;-82
2021/01/26 00:31:52;;;;;;;9.48;3.83;;;1.20;94.00;;;;;;4959855;28;20035;-81
2021/01/26 00:34:17;;;;;;;40.63;11.52;;;1.20;93.90;;;;;;4963130;28;20035;-81
2021/01/26 00:36:43;;;;;;;26.98;8.07;;;1.20;94.00;;;;;;4963091;28;20046;-80
2021/01/26 00:39:08;;;;;;;37.53;11.60;;;1.20;94.00;;;;;;4963389;28;20062;-81
2021/01/26 00:41:34;;;;;;;37.83;10.85;;;1.20;93.90;;;;;;4976739;28;20028;-81
2021/01/26 00:44:00;;;;;;;34.67;9.65;;;1.20;93.90;;;;;;4993937;28;20031;-81
2021/01/26 00:46:25;;;;;;;55.30;13.77;;;1.20;93.90;;;;;;4963460;28;20107;-81
2021/01/26 00:48:54;;;;;;;44.70;11.98;;;1.20;93.80;;;;;;4975915;28;20035;-81
2021/01/26 00:51:20;;;;;;;50.95;14.20;;;1.20;93.90;;;;;;4993670;28;20105;-81
2021/01/26 00:53:45;;;;;;;5.50;3.38;;;1.20;94.00;;;;;;4993880;28;20175;-80
2021/01/26 00:56:11;;;;;;;45.55;11.50;;;1.20;93.90;;;;;;4966219;28;20026;-80
2021/01/26 00:58:36;;;;;;;40.33;12.32;;;1.20;94.10;;;;;;4962750;28;20503;-80
2021/01/26 01:01:05;;;;;;;31.70;11.57;;;1.20;94.10;;;;;;4966183;28;20022;-80
2021/01/26 01:03:31;;;;;;;46.50;9.75;;;1.20;93.90;;;;;;4962764;28;20365;-81
2021/01/26 01:05:57;;;;;;;29.50;8.02;;;1.20;94.00;;;;;;4978955;28;20033;-81
2021/01/26 01:08:26;;;;;;;14.85;5.15;;;1.20;93.90;;;;;;4993531;28;20025;-81
2021/01/26 01:10:53;;;;;;;16.10;6.32;;;1.20;93.90;;;;;;4955759;28;20027;-81
2021/01/26 01:13:21;;;;;;;31.98;9.45;;;1.20;93.90;;;;;;4978827;28;20042;-81
2021/01/26 01:15:46;;;;;;;9.43;3.25;;;1.20;94.00;;;;;;4978163;28;20027;-81
2021/01/26 01:18:12;;;;;;;18.00;7.07;;;1.20;93.90;;;;;;4962524;28;20038;-81
2021/01/26 01:20:38;;;;;;;40.17;12.18;;;1.20;93.90;;;;;;4993559;28;20030;-80
2021/01/26 01:23:04;;;;;;;26.73;9.13;;;1.20;93.90;;;;;;4962307;28;20030;-81
2021/01/26 01:25:30;;;;;;;25.45;7.43;;;1.20;93.90;;;;;;4962417;28;20413;-80
2021/01/26 01:27:56;;;;;;;47.95;11.10;;;1.20;94.00;;;;;;4958621;28;20031;-80
2021/01/26 01:30:32;;;;;;;27.52;8.65;;;1.20;94.00;;;;;;4959386;28;20085;-80
2021/01/26 01:32:59;;;;;;;25.77;8.68;;;1.30;94.00;;;;;;4975765;28;20037;-80
2021/01/26 01:35:24;;;;;;;23.35;8.57;;;1.30;94.00;;;;;;4962070;28;20566;-81
2021/01/26 01:37:50;;;;;;;16.70;6.78;;;1.30;94.00;;;;;;4961814;28;20093;-81
2021/01/26 01:40:36;;;;;;;28.85;8.68;;;1.30;94.10;;;;;;4993047;28;20022;-81
2021/01/26 01:43:02;;;;;;;24.15;8.90;;;1.30;94.00;;;;;;4959487;28;20475;-81
2021/01/26 01:45:28;;;;;;;20.83;8.32;;;1.30;94.00;;;;;;4962096;28;20126;-80
2021/01/26 01:47:59;;;;;;;11.52;4.20;;;1.30;94.00;;;;;;4975860;28;20545;-80
2021/01/26 01:50:35;;;;;;;2.05;1.52;;;1.30;93.90;;;;;;4969684;28;20026;-79
2021/01/26 01:53:16;;;;;;;21.05;7.82;;;1.20;93.70;;;;;;4975462;28;20054;-81
2021/01/26 01:55:56;;;;;;;16.42;7.18;;;1.10;93.60;;;;;;4987314;28;20022;-81
2021/01/26 01:58:30;;;;;;;16.98;7.22;;;1.10;93.60;;;;;;4958526;28;20019;-81
2021/01/26 02:01:04;;;;;;;13.57;6.03;;;1.10;93.60;;;;;;4959288;28;20439;-81
2021/01/26 02:03:33;;;;;;;18.17;6.72;;;1.00;93.60;;;;;;4992838;28;20349;-81
2021/01/26 02:06:00;;;;;;;16.85;6.60;;;1.00;93.70;;;;;;4974746;28;20157;-81
2021/01/26 02:08:47;;;;;;;13.65;5.70;;;1.00;93.80;;;;;;4971329;28;20023;-80
2021/01/26 02:11:13;;;;;;;12.30;5.35;;;1.00;93.70;;;;;;4958042;28;20556;-80
2021/01/26 02:13:38;;;;;;;14.50;6.22;;;1.00;93.70;;;;;;4961415;28;20039;-80
2021/01/26 02:16:05;;;;;;;12.68;5.43;;;0.90;93.70;;;;;;4961986;28;20030;-80
2021/01/26 02:18:56;;;;;;;14.02;5.93;;;0.90;93.60;;;;;;4992695;28;20474;-80
2021/01/26 02:22:25;;;;;;;11.23;4.85;;;0.90;93.70;;;;;;4958503;28;20479;-80
2021/01/26 02:25:16;;;;;;;10.77;4.53;;;0.90;93.60;;;;;;4934524;29;20712;-80
2021/01/26 02:28:06;;;;;;;14.07;5.50;;;0.80;93.60;;;;;;4917860;29;20138;-80
2021/01/26 02:30:53;;;;;;;12.93;5.53;;;0.80;93.60;;;;;;4958145;28;20050;-80
2021/01/26 02:33:52;;;;;;;14.10;5.93;;;0.80;93.60;;;;;;4958047;28;20045;-79
2021/01/26 02:36:47;;;;;;;13.80;6.30;;;0.70;93.60;;;;;;4960026;28;20101;-80
2021/01/26 02:39:42;;;;;;;4.80;2.10;;;0.80;93.60;;;;;;4973620;28;20031;-79
2021/01/26 02:42:16;;;;;;;14.35;6.80;;;0.70;93.60;;;;;;4951919;28;20113;-80
2021/01/26 02:45:08;;;;;;;;;;;0.70;93.50;;;;;;4961977;28;20023;-80
2021/01/26 02:47:45;;;;;;;10.05;4.65;;;0.70;93.60;;;;;;4935379;28;19969;-80
2021/01/26 02:50:40;;;;;;;17.33;7.25;;;0.60;93.50;;;;;;4977357;28;20049;-80
2021/01/26 02:53:29;;;;;;;16.90;6.43;;;0.60;93.50;;;;;;4993455;28;20029;-81
2021/01/26 02:56:25;;;;;;;14.07;6.65;;;0.50;93.40;;;;;;4972888;28;20142;-80
2021/01/26 02:59:04;;;;;;;6.57;2.80;;;0.50;93.30;;;;;;4991484;28;20489;-80
2021/01/26 03:02:03;;;;;;;15.43;6.60;;;0.40;93.30;;;;;;4995827;28;20105;-80
2021/01/26 03:04:37;;;;;;;6.13;2.92;;;0.40;93.30;;;;;;4973776;28;20037;-80
2021/01/26 03:07:05;;;;;;;17.02;6.90;;;0.30;93.20;;;;;;4964927;28;20055;-80
2021/01/26 03:09:41;;;;;;;18.00;7.53;;;0.30;93.20;;;;;;4977346;28;20023;-80
2021/01/26 03:12:13;;;;;;;13.38;6.28;;;0.20;93.20;;;;;;4960487;28;20023;-80
2021/01/26 03:14:44;;;;;;;18.15;9.00;;;0.20;93.30;;;;;;4964697;28;20070;-80
2021/01/26 03:17:24;;;;;;;19.67;8.15;;;0.20;93.30;;;;;;4961039;28;20026;-80
2021/01/26 03:19:51;;;;;;;18.98;7.93;;;0.10;93.20;;;;;;4978565;28;20034;-79
2021/01/26 03:22:22;;;;;;;18.27;7.40;;;0.10;93.20;;;;;;4964407;28;20034;-79
2021/01/26 03:24:50;;;;;;;16.15;7.95;;;0.10;93.20;;;;;;4972768;28;20383;-79
2021/01/26 03:27:19;;;;;;;19.60;7.78;;;0.00;93.20;;;;;;4961963;28;20058;-80
2021/01/26 03:29:47;;;;;;;19.08;8.20;;;0.00;93.30;;;;;;4964478;28;20039;-80
2021/01/26 03:32:21;;;;;;;15.88;7.60;;;0.00;93.30;;;;;;4995383;28;20429;-80
2021/01/26 03:34:47;;;;;;;17.47;8.20;;;0.00;93.30;;;;;;4961116;28;20053;-80
2021/01/26 03:37:13;;;;;;;9.73;4.70;;;0.00;93.30;;;;;;4964449;28;20118;-79
2021/01/26 03:39:39;;;;;;;18.17;7.00;;;0.00;93.20;;;;;;4964178;28;20038;-79
2021/01/26 03:42:05;;;;;;;5.60;3.15;;;-0.10;93.20;;;;;;4964272;28;20087;-79
2021/01/26 03:44:31;;;;;;;21.42;8.15;;;-0.10;93.20;;;;;;4964097;28;20022;-79
2021/01/26 03:47:12;;;;;;;21.20;9.00;;;-0.10;93.30;;;;;;4964213;28;20050;-80
2021/01/26 03:50:02;;;;;;;22.67;10.73;;;-0.10;93.30;;;;;;4961238;28;20034;-79
2021/01/26 03:52:33;;;;;;;13.02;5.65;;;-0.10;93.40;;;;;;4971252;28;20026;-79
2021/01/26 03:55:07;;;;;;;12.23;6.13;;;-0.20;93.30;;;;;;4995153;28;20216;-79
2021/01/26 03:58:00;;;;;;;16.73;7.28;;;-0.20;93.40;;;;;;4995023;28;20023;-79
2021/01/26 04:00:40;;;;;;;30.55;11.88;;;-0.20;93.40;;;;;;4959671;28;20526;-79
2021/01/26 04:03:21;;;;;;;15.43;4.32;;;-0.10;93.60;;;;;;4974014;28;20027;-79
2021/01/26 04:05:57;;;;;;;35.50;11.43;;;-0.10;93.60;;;;;;4971338;28;20410;-79
2021/01/26 04:08:32;;;;;;;24.15;7.93;;;-0.10;93.70;;;;;;4964113;28;20026;-79
2021/01/26 04:11:38;;;;;;;58.55;14.73;;;-0.10;93.60;;;;;;4960691;28;20547;-79
2021/01/26 04:14:21;;;;;;;12.57;5.32;;;0.00;93.60;;;;;;4992826;28;20046;-78
2021/01/26 04:17:00;;;;;;;50.00;14.43;;;0.00;93.60;;;;;;4990440;28;20028;-79
2021/01/26 04:19:32;;;;;;;62.72;15.93;;;0.00;93.70;;;;;;4976211;28;20034;-79
2021/01/26 04:21:58;;;;;;;23.35;10.35;;;0.00;93.80;;;;;;4963454;28;20053;-79
2021/01/26 04:24:33;;;;;;;11.25;3.83;;;0.00;93.70;;;;;;4963607;28;20118;-79
2021/01/26 04:27:02;;;;;;;39.33;11.80;;;0.00;93.80;;;;;;4960029;28;20023;-79
2021/01/26 04:29:28;;;;;;;36.05;11.65;;;0.10;93.80;;;;;;4959787;28;20043;-79
2021/01/26 04:31:55;;;;;;;62.25;17.63;;;0.10;93.90;;;;;;4966456;28;20388;-79
2021/01/26 04:34:21;;;;;;;44.88;12.57;;;0.20;93.90;;;;;;4963280;28;20093;-79
2021/01/26 04:36:46;;;;;;;47.75;14.98;;;0.20;93.90;;;;;;4960458;28;20031;-79
2021/01/26 04:39:12;;;;;;;40.28;14.35;;;0.20;93.90;;;;;;4960977;28;20403;-79
2021/01/26 04:41:42;;;;;;;53.45;16.00;;;0.20;93.90;;;;;;4963366;28;20030;-80
2021/01/26 04:44:36;;;;;;;12.25;6.03;;;0.30;93.90;;;;;;4959494;28;20029;-80
2021/01/26 04:47:25;;;;;;;26.95;8.63;;;0.30;93.90;;;;;;4993907;28;20046;-78
2021/01/26 04:50:00;;;;;;;40.25;13.07;;;0.30;93.90;;;;;;4959744;28;20082;-79
2021/01/26 04:52:56;;;;;;;25.33;7.90;;;0.30;94.00;;;;;;4994179;28;20436;-79
2021/01/26 04:55:28;;;;;;;72.75;16.80;;;0.40;94.10;;;;;;4959890;28;20062;-79
2021/01/26 04:58:27;;;;;;;80.28;17.90;;;0.40;94.10;;;;;;4976117;28;20038;-80
2021/01/26 05:01:14;;;;;;;46.42;12.02;;;0.50;94.20;;;;;;4973396;28;20026;-80
2021/01/26 05:03:54;;;;;;;35.22;9.93;;;0.50;94.10;;;;;;4969491;28;20037;-80
2021/01/26 05:06:24;;;;;;;57.40;15.10;;;0.60;94.20;;;;;;4993763;28;20022;-80
2021/01/26 05:08:53;;;;;;;6.40;3.03;;;0.60;94.20;;;;;;4961000;28;20394;-79
2021/01/26 05:11:25;;;;;;;54.33;17.83;;;0.60;94.20;;;;;;4957184;28;20121;-80
2021/01/26 05:14:05;;;;;;;37.33;11.25;;;0.60;94.10;;;;;;4993669;28;20129;-79
2021/01/26 05:16:42;;;;;;;15.60;7.88;;;0.70;94.10;;;;;;4956092;28;20023;-79
2021/01/26 05:19:49;;;;;;;42.45;12.75;;;0.70;94.00;;;;;;4962788;28;20081;-79
2021/01/26 05:22:26;;;;;;;102.30;20.95;;;0.70;94.00;;;;;;4970714;28;20037;-79
2021/01/26 05:24:58;;;;;;;52.70;13.07;;;0.70;94.00;;;;;;4962246;28;20501;-79
2021/01/26 05:27:23;;;;;;;19.42;8.10;;;0.70;94.00;;;;;;4958655;28;20025;-79
2021/01/26 05:29:50;;;;;;;37.30;11.65;;;0.70;94.00;;;;;;4958675;28;20051;-80
2021/01/26 05:32:16;;;;;;;49.33;14.43;;;0.70;94.00;;;;;;4961934;28;20082;-81
2021/01/26 05:34:42;;;;;;;26.65;7.97;;;0.70;94.00;;;;;;4962582;28;20043;-80
2021/01/26 05:37:10;;;;;;;72.78;15.98;;;0.70;94.00;;;;;;4965392;28;20025;-80
2021/01/26 05:39:39;;;;;;;103.95;19.38;;;0.70;93.90;;;;;;4962216;28;20542;-80
2021/01/26 05:42:04;;;;;;;41.88;11.02;;;0.70;94.00;;;;;;4958769;28;20023;-80
2021/01/26 05:44:33;;;;;;;73.88;16.92;;;0.70;94.00;;;;;;4958038;28;20100;-80
2021/01/26 05:47:21;;;;;;;9.48;5.07;;;0.70;94.30;;;;;;4986969;28;20030;-80
2021/01/26 05:49:46;;;;;;;33.47;9.93;;;0.70;94.00;;;;;;4959061;28;20022;-80
2021/01/26 05:52:12;;;;;;;29.58;8.13;;;0.80;94.10;;;;;;4962014;28;20027;-80
2021/01/26 05:54:54;;;;;;;67.55;17.00;;;0.80;94.10;;;;;;4962305;28;20418;-80
2021/01/26 05:57:31;;;;;;;39.90;11.13;;;0.80;94.10;;;;;;4958345;28;20027;-80
2021/01/26 06:00:24;;;;;;;39.50;10.30;;;0.80;94.10;;;;;;4961837;28;20121;-80
2021/01/26 06:03:09;;;;;;;51.58;12.45;;;0.90;94.10;;;;;;4989745;28;20031;-80
2021/01/26 06:05:35;;;;;;;;;;;0.90;94.10;;;;;;4974065;28;20057;-80
2021/01/26 06:08:27;;;;;;;15.93;8.30;;;0.90;94.10;;;;;;4992961;28;19917;-80
2021/01/26 06:10:53;;;;;;;48.90;11.93;;;0.90;94.10;;;;;;4990558;28;20038;-80
2021/01/26 06:13:30;;;;;;;8.88;4.82;;;0.90;94.20;;;;;;4961684;28;20494;-80
2021/01/26 06:16:22;;;;;;;51.28;12.70;;;0.90;94.10;;;;;;4977630;28;20550;-82
2021/01/26 06:19:00;;;;;;;57.05;10.18;;;1.00;94.20;;;;;;4986871;28;20105;-84
2021/01/26 06:21:26;;;;;;;5.03;2.67;;;1.00;94.30;;;;;;4957973;28;20023;-83
2021/01/26 06:23:52;;;;;;;32.58;7.38;;;1.00;94.30;;;;;;4957044;28;20050;-84
2021/01/26 06:26:18;;;;;;;27.52;7.70;;;1.10;94.30;;;;;;4961858;28;20089;-82
2021/01/26 06:28:46;;;;;;;13.07;7.55;;;1.10;94.20;;;;;;4961259;28;20043;-84
2021/01/26 06:31:46;;;;;;;34.42;7.55;;;1.10;94.20;;;;;;4965927;28;20534;-82
2021/01/26 06:34:35;;;;;;;9.70;3.72;;;1.10;94.30;;;;;;4959210;28;20042;-88
2021/01/26 06:37:30;;;;;;;20.80;6.00;;;1.10;94.10;;;;;;4961477;28;20034;-85
2021/01/26 06:40:25;;;;;;;47.67;10.57;;;1.10;94.20;;;;;;4961951;28;20022;-86
2021/01/26 06:43:23;;;;;;;34.40;8.95;;;1.10;94.20;;;;;;4957290;28;20034;-83
2021/01/26 06:46:19;;;;;;;37.15;7.88;;;1.10;94.10;;;;;;4973814;28;20468;-84
2021/01/26 06:49:13;;;;;;;51.65;11.90;;;1.20;94.20;;;;;;4964739;28;20033;-83
2021/01/26 06:51:38;;;;;;;33.35;9.18;;;1.20;94.20;;;;;;4960021;28;20029;-83
2021/01/26 06:55:06;;;;;;;12.55;5.20;;;1.30;94.20;;;;;;4959986;28;20405;-84
2021/01/26 06:57:55;;;;;;;14.82;7.22;;;1.20;94.20;;;;;;4908365;29;20034;-85
2021/01/26 07:00:29;;;;;;;30.38;8.40;;;1.20;94.20;;;;;;4924736;29;20432;-86
2021/01/26 07:03:11;;;;;;;;;;;1.20;94.10;;;;;;4966211;28;20053;-86
2021/01/26 07:06:13;;;;;;;20.73;7.78;;;1.20;94.10;;;;;;4959533;28;20001;-84
2021/01/26 07:09:08;;;;;;;32.55;8.95;;;1.20;94.20;;;;;;4956718;28;20396;-85
2021/01/26 07:11:54;;;;;;;17.23;9.43;;;1.30;94.20;;;;;;4972060;28;20033;-86
2021/01/26 07:14:34;;;;;;;44.35;11.32;;;1.30;94.20;;;;;;4970829;28;20038;-87
2021/01/26 07:17:07;;;;;;;46.45;9.68;;;1.30;94.20;;;;;;4961366;28;20058;-86
2021/01/26 07:19:51;;;;;;;13.63;5.10;;;1.30;94.20;;;;;;4963131;28;20026;-91
2021/01/26 07:22:30;;;;;;;16.65;5.53;;;1.30;94.10;;;;;;4955740;28;20022;-83
2021/01/26 07:24:59;;;;;;;95.47;17.25;;;1.30;94.20;;;;;;4992263;28;20425;-87
2021/01/26 07:27:28;;;;;;;43.75;11.40;;;1.30;94.20;;;;;;4958815;28;20479;-82
2021/01/26 07:30:02;;;;;;;15.40;7.97;;;1.30;94.10;;;;;;4991666;28;20054;-81
2021/01/26 07:32:35;;;;;;;11.48;5.45;;;1.30;94.20;;;;;;4965434;28;20029;-85
2021/01/26 07:35:41;;;;;;;19.05;12.27;;;1.30;94.20;;;;;;4963130;28;20042;-85
2021/01/26 07:38:44;;;;;;;51.65;13.15;;;1.40;94.20;;;;;;4955944;28;20027;-85
2021/01/26 07:41:48;;;;;;;28.50;8.88;;;1.40;94.20;;;;;;4918700;28;20129;-85
2021/01/26 07:44:42;;;;;;;71.68;15.32;;;1.50;94.30;;;;;;4974687;28;20479;-85
2021/01/26 07:47:27;;;;;;;67.18;18.25;;;1.50;94.40;;;;;;4974859;28;20045;-83
2021/01/26 07:50:19;;;;;;;32.40;9.32;;;1.60;94.40;;;;;;4963689;28;20035;-80
2021/01/26 07:52:48;;;;;;;21.15;8.80;;;1.70;94.40;;;;;;4976432;28;20027;-83
2021/01/26 07:55:35;;;;;;;11.77;5.95;;;1.80;94.30;;;;;;4969502;28;20094;-81
2021/01/26 07:58:05;;;;;;;30.13;9.75;;;1.80;94.10;;;;;;4953352;28;20037;-82
2021/01/26 08:00:35;;;;;;;41.38;11.52;;;1.70;94.10;;;;;;4994925;28;20470;-82
2021/01/26 08:03:02;;;;;;;17.70;10.27;;;1.80;94.20;;;;;;4964286;28;20058;-83
2021/01/26 08:05:58;;;;;;;22.83;9.00;;;1.80;94.20;;;;;;4969138;28;20379;-83
2021/01/26 08:08:39;;;;;;;19.17;6.35;;;1.80;94.20;;;;;;4962998;28;20057;-81
2021/01/26 08:11:25;;;;;;;16.80;6.28;;;1.80;94.30;;;;;;4963851;28;20466;-80
2021/01/26 08:14:06;;;;;;;15.90;10.52;;;1.80;94.30;;;;;;4994205;28;20030;-81
2021/01/26 08:16:42;;;;;;;13.43;7.57;;;1.90;94.30;;;;;;4964030;28;20034;-80
2021/01/26 08:19:30;;;;;;;3.92;2.33;;;1.90;94.30;;;;;;4987975;28;20026;-83
2021/01/26 08:21:58;;;;;;;21.40;7.70;;;1.90;94.30;;;;;;4963881;28;20030;-80
2021/01/26 08:24:34;;;;;;;17.30;8.90;;;1.90;94.30;;;;;;4972077;28;20494;-80
2021/01/26 08:27:37;;;;;;;47.33;11.07;;;1.90;94.00;;;;;;4994349;28;20371;-81
2021/01/26 08:30:08;;;;;;;54.92;13.45;;;1.90;94.00;;;;;;4933666;28;20043;-81
2021/01/26 08:33:05;;;;;;;15.85;6.00;;;1.80;94.00;;;;;;4943937;28;20103;-83
2021/01/26 08:35:31;;;;;;;15.43;5.55;;;1.80;94.20;;;;;;4968674;28;20066;-83
2021/01/26 08:38:01;;;;;;;12.63;6.55;;;1.80;94.10;;;;;;4962550;28;20019;-88
2021/01/26 08:40:29;;;;;;;12.65;4.32;;;1.90;94.20;;;;;;4962341;28;20374;-83
2021/01/26 08:43:05;;;;;;;13.32;6.15;;;1.90;94.30;;;;;;4956775;28;20030;-83
2021/01/26 08:45:32;;;;;;;31.65;10.48;;;2.00;94.40;;;;;;4964587;28;20542;-82
2021/01/26 08:48:05;;;;;;;44.75;10.73;;;2.00;94.30;;;;;;4958164;28;20023;-88
2021/01/26 08:50:45;;;;;;;39.50;10.57;;;2.00;94.20;;;;;;4959341;28;20034;-88
2021/01/26 08:53:35;;;;;;;16.10;8.65;;;2.10;94.30;;;;;;4972282;28;20019;-88
2021/01/26 08:56:22;;;;;;;25.05;7.88;;;2.00;94.10;;;;;;4954750;28;20371;-89
2021/01/26 08:58:50;;;;;;;42.17;10.80;;;2.00;94.10;;;;;;4980086;28;20023;-85
2021/01/26 09:01:38;;;;;;;17.10;5.93;;;2.00;94.20;;;;;;4956768;28;20019;-82
2021/01/26 09:04:13;;;;;;;15.43;8.45;;;2.10;94.20;;;;;;4957137;28;20053;-82
2021/01/26 09:06:44;;;;;;;14.98;8.65;;;2.10;94.10;;;;;;4960908;28;20034;-83
2021/01/26 09:09:31;;;;;;;45.38;11.90;;;2.00;93.90;;;;;;4957784;28;20027;-83
2021/01/26 09:12:10;;;;;;;20.98;8.30;;;1.90;94.00;;;;;;4956337;28;20025;-80
2021/01/26 09:14:44;;;;;;;14.88;6.82;;;1.90;93.90;;;;;;4958540;28;20032;-80
2021/01/26 09:17:24;;;;;;;18.57;8.43;;;1.90;94.10;;;;;;4957415;28;20031;-81
2021/01/26 09:19:54;;;;;;;27.27;9.27;;;2.00;94.20;;;;;;4959140;28;20035;-80
2021/01/26 09:22:20;;;;;;;10.73;5.70;;;2.10;94.30;;;;;;4960680;28;20543;-80
2021/01/26 09:24:47;;;;;;;25.20;9.82;;;2.10;94.30;;;;;;4960665;28;20023;-79
2021/01/26 09:27:17;;;;;;;19.85;9.55;;;2.20;94.40;;;;;;4960675;28;20106;-83
2021/01/26 09:29:43;;;;;;;34.75;11.27;;;2.20;94.20;;;;;;4961346;28;20046;-79
2021/01/26 09:32:09;;;;;;;11.45;5.97;;;2.20;94.10;;;;;;4969053;28;20484;-80
2021/01/26 09:34:35;;;;;;;18.33;7.28;;;2.20;94.20;;;;;;4966932;28;20034;-80
2021/01/26 09:37:23;;;;;;;17.85;9.82;;;2.30;94.30;;;;;;4968180;28;20034;-80
2021/01/26 09:39:50;;;;;;;20.90;8.35;;;2.30;94.20;;;;;;4956634;28;20049;-80
2021/01/26 09:42:22;;;;;;;12.77;6.97;;;2.40;94.40;;;;;;4962066;28;20378;-80
2021/01/26 09:44:58;;;;;;;14.93;7.65;;;2.40;94.30;;;;;;4962155;28;20375;-80
2021/01/26 09:47:26;;;;;;;11.02;5.35;;;2.40;94.20;;;;;;4961363;28;20030;-79
2021/01/26 09:50:00;;;;;;;11.73;6.72;;;2.40;94.30;;;;;;4982317;28;20030;-79
2021/01/26 09:52:25;;;;;;;11.52;4.97;;;2.50;94.20;;;;;;4961955;28;20026;-83
2021/01/26 09:55:08;;;;;;;17.02;6.10;;;2.50;94.30;;;;;;4977964;28;20662;-82
2021/01/26 09:57:34;;;;;;;16.60;7.35;;;2.50;94.40;;;;;;4959980;28;20023;-79
2021/01/26 10:00:01;;;;;;;20.73;6.82;;;2.60;94.40;;;;;;4976853;28;20042;-81
2021/01/26 10:02:28;;;;;;;19.67;8.27;;;2.70;94.30;;;;;;4961980;28;20023;-80
2021/01/26 10:04:57;;;;;;;11.38;5.45;;;2.70;94.50;;;;;;4971418;28;20023;-85
2021/01/26 10:07:23;;;;;;;12.23;6.85;;;3.00;94.80;;;;;;4961940;28;20031;-83
2021/01/26 10:09:51;;;;;;;7.65;3.92;;;3.10;94.70;;;;;;4962674;28;20033;-93
2021/01/26 10:12:51;;;;;;;14.05;6.00;;;3.10;94.30;;;;;;4963521;28;20038;-87
2021/01/26 10:15:35;;;;;;;19.33;7.03;;;3.20;94.00;;;;;;4960496;28;20035;-84
2021/01/26 10:18:18;;;;;;;11.45;6.15;;;3.10;93.90;;;;;;4961437;28;20027;-82
2021/01/26 10:20:44;;;;;;;14.57;8.07;;;3.00;93.70;;;;;;4956021;28;20033;-79
2021/01/26 10:23:13;;;;;;;13.38;6.18;;;2.90;93.70;;;;;;4961373;28;20391;-81
2021/01/26 10:25:42;;;;;;;11.93;5.00;;;2.80;93.90;;;;;;4961274;28;20030;-81
2021/01/26 10:28:10;;;;;;;16.73;7.03;;;2.80;94.20;;;;;;4952862;28;20102;-80
2021/01/26 10:30:45;;;;;;;14.88;8.18;;;3.00;94.30;;;;;;4959063;28;20566;-80
2021/01/26 10:33:28;;;;;;;13.13;5.03;;;3.00;94.20;;;;;;4992261;28;20422;-80
2021/01/26 10:35:56;;;;;;;6.55;3.35;;;3.10;94.30;;;;;;4967296;28;20037;-80
2021/01/26 10:38:43;;;;;;;11.00;5.60;;;3.20;94.60;;;;;;4961277;28;20030;-80
2021/01/26 10:41:31;;;;;;;12.57;7.03;;;3.30;94.40;;;;;;4957866;28;20477;-82
2021/01/26 10:44:12;;;;;;;14.98;5.90;;;3.40;94.50;;;;;;4979550;28;20038;-80
2021/01/26 10:46:56;;;;;;;15.48;6.50;;;3.40;94.00;;;;;;4962739;28;20501;-82
2021/01/26 10:49:30;;;;;;;13.00;4.97;;;3.30;93.60;;;;;;4958928;28;20023;-82
2021/01/26 10:52:06;;;;;;;18.92;7.80;;;3.20;93.80;;;;;;4957716;28;20031;-82
2021/01/26 10:54:33;;;;;;;26.95;9.63;;;3.20;94.00;;;;;;4956303;28;20034;-82
2021/01/26 10:57:01;;;;;;;12.23;5.82;;;3.60;94.50;;;;;;4978069;28;20054;-82
2021/01/26 10:59:27;;;;;;;10.57;4.40;;;3.20;93.90;;;;;;4959097;28;20046;-82
2021/01/26 11:01:53;;;;;;;22.05;7.47;;;3.50;93.70;;;;;;4960354;28;20018;-82
2021/01/26 11:04:19;;;;;;;8.32;4.22;;;3.50;94.00;;;;;;4990579;28;20386;-82
2021/01/26 11:06:46;;;;;;;19.73;7.60;;;3.50;94.00;;;;;;4959702;28;20367;-82
2021/01/26 11:09:16;;;;;;;11.57;5.72;;;3.70;93.80;;;;;;4961452;28;20042;-82
2021/01/26 11:11:44;;;;;;;8.90;4.88;;;3.30;93.70;;;;;;4965016;28;20050;-82
2021/01/26 11:14:09;;;;;;;13.07;5.47;;;3.00;93.80;;;;;;4964555;28;20030;-82
2021/01/26 11:16:35;;;;;;;10.55;4.38;;;3.00;94.00;;;;;;4965906;28;20431;-82
2021/01/26 11:19:03;;;;;;;14.20;6.25;;;3.20;94.00;;;;;;4961800;28;20050;-82
2021/01/26 11:21:31;;;;;;;9.40;4.93;;;3.00;93.70;;;;;;4964931;28;20030;-82
2021/01/26 11:23:56;;;;;;;11.70;4.50;;;3.40;94.30;;;;;;4964493;28;20035;-81
2021/01/26 11:26:45;;;;;;;11.13;6.20;;;3.40;94.30;;;;;;4985656;28;20030;-84
2021/01/26 11:29:10;;;;;;;17.90;6.18;;;3.30;94.10;;;;;;4959513;28;20499;-81
2021/01/26 11:31:36;;;;;;;21.08;7.57;;;3.20;93.90;;;;;;4960912;28;20082;-84
2021/01/26 11:34:08;;;;;;;11.10;5.65;;;3.20;94.20;;;;;;4982988;28;20054;-82
2021/01/26 11:36:36;;;;;;;38.72;10.93;;;3.60;94.40;;;;;;4956287;28;20019;-82
2021/01/26 11:39:02;;;;;;;12.10;7.10;;;3.70;94.20;;;;;;4961621;28;20053;-86
2021/01/26 11:41:28;;;;;;;16.00;5.72;;;3.50;94.10;;;;;;4980559;28;20110;-82
2021/01/26 11:43:56;;;;;;;20.42;5.70;;;3.90;94.00;;;;;;4980405;28;20445;-82
2021/01/26 11:46:22;;;;;;;11.25;5.85;;;3.40;93.60;;;;;;4968609;28;20033;-79
2021/01/26 11:48:48;;;;;;;12.20;6.78;;;3.30;93.80;;;;;;4977318;28;20023;-83
2021/01/26 11:51:13;;;;;;;12.02;7.30;;;3.60;93.80;;;;;;4969112;28;20018;-86
2021/01/26 11:53:39;;;;;;;24.17;9.10;;;3.70;93.70;;;;;;4985597;28;20105;-84
2021/01/26 11:56:08;;;;;;;13.82;5.57;;;3.70;93.90;;;;;;4962014;28;20467;-84
2021/01/26 11:58:35;;;;;;;13.80;5.00;;;3.40;93.90;;;;;;4969807;28;20057;-87
2021/01/26 12:01:03;;;;;;;12.02;6.68;;;3.50;94.00;;;;;;4963887;28;20034;-88
2021/01/26 12:03:28;;;;;;;15.35;5.93;;;3.50;94.10;;;;;;4964068;28;20030;-88
2021/01/26 12:05:54;;;;;;;15.15;5.35;;;3.60;93.80;;;;;;4995227;28;20027;-85
2021/01/26 12:08:20;;;;;;;11.52;5.22;;;3.70;93.90;;;;;;4979958;28;20034;-85
2021/01/26 12:10:46;;;;;;;11.43;5.32;;;3.30;93.50;;;;;;4964883;28;20117;-84
2021/01/26 12:13:12;;;;;;;22.88;6.53;;;3.60;93.90;;;;;;4961274;28;20027;-82
2021/01/26 12:15:42;;;;;;;10.60;5.50;;;3.60;94.10;;;;;;4964215;28;20026;-79
2021/01/26 12:18:10;;;;;;;11.50;5.45;;;3.50;93.70;;;;;;4963751;28;20027;-79
2021/01/26 12:20:39;;;;;;;12.38;5.72;;;3.40;93.80;;;;;;4976842;28;20030;-81
2021/01/26 12:23:05;;;;;;;16.73;6.50;;;3.40;93.80;;;;;;4959813;28;20027;-80
2021/01/26 12:25:33;;;;;;;15.35;7.15;;;3.30;93.50;;;;;;4962138;28;20042;-80
2021/01/26 12:27:58;;;;;;;10.07;4.60;;;3.10;93.10;;;;;;4962930;28;20034;-80
2021/01/26 12:30:25;;;;;;;14.05;7.10;;;3.00;93.30;;;;;;4960779;28;20046;-81
2021/01/26 12:32:50;;;;;;;7.68;4.25;;;2.90;93.40;;;;;;4959463;28;20089;-80
2021/01/26 12:35:20;;;;;;;9.25;4.45;;;2.90;93.70;;;;;;4960602;28;20054;-81
2021/01/26 12:37:46;;;;;;;24.23;8.68;;;3.00;94.00;;;;;;4961160;28;20082;-80
2021/01/26 12:40:12;;;;;;;9.68;5.25;;;3.10;94.10;;;;;;4963866;28;20027;-80
2021/01/26 12:42:39;;;;;;;9.80;4.13;;;3.10;94.10;;;;;;4962238;28;20026;-81
2021/01/26 12:45:09;;;;;;;15.43;7.20;;;3.30;94.20;;;;;;4977307;28;20030;-80
2021/01/26 12:47:35;;;;;;;8.32;3.85;;;3.30;94.10;;;;;;4960494;28;20034;-80
2021/01/26 12:50:00;;;;;;;11.90;5.28;;;3.50;94.50;;;;;;4962786;28;20043;-80
2021/01/26 12:52:26;;;;;;;19.52;7.25;;;3.60;94.30;;;;;;4965033;28;20033;-80
2021/01/26 12:54:52;;;;;;;9.10;4.78;;;3.50;93.70;;;;;;4963347;28;20038;-79
2021/01/26 12:57:18;;;;;;;12.15;5.30;;;3.70;93.70;;;;;;4996087;28;20031;-79
2021/01/26 12:59:43;;;;;;;8.10;4.10;;;3.40;93.60;;;;;;4960511;28;20060;-80
2021/01/26 13:02:10;;;;;;;10.95;5.63;;;3.40;93.80;;;;;;4963243;28;20022;-79
2021/01/26 13:04:35;;;;;;;16.77;5.97;;;3.40;94.00;;;;;;4993860;28;20038;-80
2021/01/26 13:07:01;;;;;;;8.35;3.90;;;3.40;93.80;;;;;;4979008;28;20029;-80
2021/01/26 13:09:26;;;;;;;11.90;6.20;;;3.30;93.60;;;;;;4959232;28;20106;-80
2021/01/26 13:11:52;;;;;;;12.88;5.75;;;3.30;93.70;;;;;;4959691;28;20114;-79
2021/01/26 13:14:18;;;;;;;13.43;5.30;;;3.20;93.50;;;;;;4963080;28;20089;-80
2021/01/26 13:16:43;;;;;;;7.57;3.33;;;3.20;93.50;;;;;;4963102;28;20030;-79
2021/01/26 13:19:12;;;;;;;15.75;4.22;;;3.10;93.80;;;;;;4962443;28;20035;-80
2021/01/26 13:21:41;;;;;;;17.90;6.22;;;3.10;93.80;;;;;;4959581;28;20023;-79